sensor_id;sensor_type;location;lat;lon;timestamp;P1;durP1;ratioP1;P2;durP2;ratioP2
5022;SDS011;2530;47.990;7.866;2023-06-01T00:00:14;5.93;;;3.50;;
5022;SDS011;2530;47.990;7.866;2023-06-01T00:02:41;3.80;;;3.50;;
5022;SDS011;2530;47.990;7.866;2023-06-01T00:05:06;4.07;;;3.72;;
5022;SDS011;2530;47.990;7.866;2023-06-01T00:07:32;4.78;;;3.90;;
5022;SDS011;2530;47.990;7.866;2023-06-01T00:09:58;3.80;;;3.35;;
5022;SDS011;2530;47.990;7.866;2023-06-01T00:12:25;5.00;;;3.50;;
5022;SDS011;2530;47.990;7.866;2023-06-01T00:14:51;6.03;;;4.03;;
5022;SDS011;2530;47.990;7.866;2023-06-01T00:17:16;4.83;;;3.90;;
5022;SDS011;2530;47.990;7.866;2023-06-01T00:19:42;4.73;;;3.80;;
5022;SDS011;2530;47.990;7.866;2023-06-01T00:22:10;5.50;;;3.90;;
5022;SDS011;2530;47.990;7.866;2023-06-01T00:24:36;5.10;;;3.88;;
5022;SDS011;2530;47.990;7.866;2023-06-01T00:27:01;4.47;;;3.90;;
5022;SDS011;2530;47.990;7.866;2023-06-01T00:29:27;4.18;;;3.78;;
5022;SDS011;2530;47.990;7.866;2023-06-01T00:31:53;5.68;;;3.80;;
5022;SDS011;2530;47.990;7.866;2023-06-01T00:34:19;5.67;;;4.17;;
5022;SDS011;2530;47.990;7.866;2023-06-01T00:36:44;4.80;;;4.20;;
5022;SDS011;2530;47.990;7.866;2023-06-01T00:39:10;8.43;;;4.07;;
5022;SDS011;2530;47.990;7.866;2023-06-01T00:41:35;5.25;;;3.90;;
5022;SDS011;2530;47.990;7.866;2023-06-01T00:44:01;5.20;;;3.70;;
5022;SDS011;2530;47.990;7.866;2023-06-01T00:46:27;4.63;;;4.00;;
5022;SDS011;2530;47.990;7.866;2023-06-01T00:48:55;4.55;;;3.80;;
5022;SDS011;2530;47.990;7.866;2023-06-01T00:51:20;5.00;;;4.30;;
5022;SDS011;2530;47.990;7.866;2023-06-01T00:53:46;5.90;;;4.70;;
5022;SDS011;2530;47.990;7.866;2023-06-01T00:56:12;5.97;;;4.45;;
5022;SDS011;2530;47.990;7.866;2023-06-01T00:58:39;5.28;;;4.35;;
5022;SDS011;2530;47.990;7.866;2023-06-01T01:01:05;5.28;;;4.78;;
5022;SDS011;2530;47.990;7.866;2023-06-01T01:03:30;5.68;;;4.70;;
5022;SDS011;2530;47.990;7.866;2023-06-01T01:06:46;6.13;;;4.00;;
5022;SDS011;2530;47.990;7.866;2023-06-01T01:11:46;6.00;;;4.30;;
5022;SDS011;2530;47.990;7.866;2023-06-01T01:14:24;7.60;;;4.80;;
5022;SDS011;2530;47.990;7.866;2023-06-01T01:16:57;5.00;;;4.50;;
5022;SDS011;2530;47.990;7.866;2023-06-01T01:22:18;6.85;;;4.53;;
5022;SDS011;2530;47.990;7.866;2023-06-01T01:27:54;5.93;;;4.65;;
5022;SDS011;2530;47.990;7.866;2023-06-01T01:30:30;6.03;;;4.72;;
5022;SDS011;2530;47.990;7.866;2023-06-01T01:32:57;4.95;;;4.50;;
5022;SDS011;2530;47.990;7.866;2023-06-01T01:35:24;7.03;;;4.40;;
5022;SDS011;2530;47.990;7.866;2023-06-01T01:37:52;5.65;;;5.05;;
5022;SDS011;2530;47.990;7.866;2023-06-01T01:40:18;5.40;;;4.60;;
5022;SDS011;2530;47.990;7.866;2023-06-01T01:42:44;5.60;;;5.10;;
5022;SDS011;2530;47.990;7.866;2023-06-01T01:45:09;6.35;;;4.72;;
5022;SDS011;2530;47.990;7.866;2023-06-01T01:47:40;5.43;;;4.90;;
5022;SDS011;2530;47.990;7.866;2023-06-01T01:50:10;5.38;;;4.15;;
5022;SDS011;2530;47.990;7.866;2023-06-01T01:52:38;6.55;;;5.00;;
5022;SDS011;2530;47.990;7.866;2023-06-01T01:55:08;7.30;;;5.35;;
5022;SDS011;2530;47.990;7.866;2023-06-01T01:57:34;5.10;;;4.57;;
5022;SDS011;2530;47.990;7.866;2023-06-01T02:00:01;6.40;;;4.70;;
5022;SDS011;2530;47.990;7.866;2023-06-01T02:02:27;6.47;;;4.85;;
5022;SDS011;2530;47.990;7.866;2023-06-01T02:04:53;6.10;;;5.60;;
5022;SDS011;2530;47.990;7.866;2023-06-01T02:07:19;5.18;;;4.68;;
5022;SDS011;2530;47.990;7.866;2023-06-01T02:09:44;5.93;;;5.20;;
5022;SDS011;2530;47.990;7.866;2023-06-01T02:12:10;8.00;;;4.90;;
5022;SDS011;2530;47.990;7.866;2023-06-01T02:14:36;6.63;;;5.50;;
5022;SDS011;2530;47.990;7.866;2023-06-01T02:17:01;6.80;;;5.23;;
5022;SDS011;2530;47.990;7.866;2023-06-01T02:19:27;6.40;;;4.80;;
5022;SDS011;2530;47.990;7.866;2023-06-01T02:21:53;5.28;;;4.78;;
5022;SDS011;2530;47.990;7.866;2023-06-01T02:24:19;5.30;;;4.60;;
5022;SDS011;2530;47.990;7.866;2023-06-01T02:26:45;5.38;;;4.40;;
5022;SDS011;2530;47.990;7.866;2023-06-01T02:29:13;5.40;;;4.70;;
5022;SDS011;2530;47.990;7.866;2023-06-01T02:31:39;6.05;;;4.35;;
5022;SDS011;2530;47.990;7.866;2023-06-01T02:34:05;6.18;;;4.88;;
5022;SDS011;2530;47.990;7.866;2023-06-01T02:36:30;5.00;;;4.37;;
5022;SDS011;2530;47.990;7.866;2023-06-01T02:38:57;5.50;;;5.00;;
5022;SDS011;2530;47.990;7.866;2023-06-01T02:41:23;6.30;;;4.65;;
5022;SDS011;2530;47.990;7.866;2023-06-01T02:43:49;5.33;;;4.53;;
5022;SDS011;2530;47.990;7.866;2023-06-01T02:46:16;5.97;;;4.82;;
5022;SDS011;2530;47.990;7.866;2023-06-01T02:48:42;5.72;;;4.90;;
5022;SDS011;2530;47.990;7.866;2023-06-01T02:51:08;6.63;;;5.38;;
5022;SDS011;2530;47.990;7.866;2023-06-01T02:53:34;7.27;;;5.67;;
5022;SDS011;2530;47.990;7.866;2023-06-01T02:55:59;5.37;;;4.87;;
5022;SDS011;2530;47.990;7.866;2023-06-01T02:58:25;5.93;;;5.35;;
5022;SDS011;2530;47.990;7.866;2023-06-01T03:00:50;6.43;;;5.83;;
5022;SDS011;2530;47.990;7.866;2023-06-01T03:03:16;5.77;;;5.27;;
5022;SDS011;2530;47.990;7.866;2023-06-01T03:05:41;6.97;;;5.47;;
5022;SDS011;2530;47.990;7.866;2023-06-01T03:08:08;6.30;;;4.90;;
5022;SDS011;2530;47.990;7.866;2023-06-01T03:10:33;5.90;;;5.40;;
5022;SDS011;2530;47.990;7.866;2023-06-01T03:12:59;5.70;;;5.10;;
5022;SDS011;2530;47.990;7.866;2023-06-01T03:15:25;7.70;;;5.80;;
5022;SDS011;2530;47.990;7.866;2023-06-01T03:17:52;6.32;;;5.30;;
5022;SDS011;2530;47.990;7.866;2023-06-01T03:20:18;5.60;;;5.00;;
5022;SDS011;2530;47.990;7.866;2023-06-01T03:22:44;5.72;;;5.00;;
5022;SDS011;2530;47.990;7.866;2023-06-01T03:25:10;5.97;;;5.38;;
5022;SDS011;2530;47.990;7.866;2023-06-01T03:27:37;5.75;;;5.10;;
5022;SDS011;2530;47.990;7.866;2023-06-01T03:30:06;6.40;;;5.80;;
5022;SDS011;2530;47.990;7.866;2023-06-01T03:32:37;5.90;;;5.40;;
5022;SDS011;2530;47.990;7.866;2023-06-01T03:35:04;6.07;;;5.57;;
5022;SDS011;2530;47.990;7.866;2023-06-01T03:37:32;5.87;;;5.37;;
5022;SDS011;2530;47.990;7.866;2023-06-01T03:39:59;5.82;;;5.10;;
5022;SDS011;2530;47.990;7.866;2023-06-01T03:42:25;6.22;;;5.30;;
5022;SDS011;2530;47.990;7.866;2023-06-01T03:44:50;6.07;;;5.30;;
5022;SDS011;2530;47.990;7.866;2023-06-01T03:47:16;5.77;;;5.27;;
5022;SDS011;2530;47.990;7.866;2023-06-01T03:49:41;6.03;;;5.35;;
5022;SDS011;2530;47.990;7.866;2023-06-01T03:52:07;5.60;;;5.10;;
5022;SDS011;2530;47.990;7.866;2023-06-01T03:54:33;6.90;;;5.70;;
5022;SDS011;2530;47.990;7.866;2023-06-01T03:56:59;5.65;;;5.15;;
5022;SDS011;2530;47.990;7.866;2023-06-01T03:59:25;6.10;;;5.50;;
5022;SDS011;2530;47.990;7.866;2023-06-01T04:01:51;6.30;;;4.83;;
5022;SDS011;2530;47.990;7.866;2023-06-01T04:04:17;6.30;;;5.40;;
5022;SDS011;2530;47.990;7.866;2023-06-01T04:06:45;5.53;;;5.03;;
5022;SDS011;2530;47.990;7.866;2023-06-01T04:09:11;6.55;;;5.00;;
5022;SDS011;2530;47.990;7.866;2023-06-01T04:11:38;6.93;;;5.60;;
5022;SDS011;2530;47.990;7.866;2023-06-01T04:14:04;7.43;;;5.65;;
5022;SDS011;2530;47.990;7.866;2023-06-01T04:16:30;6.90;;;5.23;;
5022;SDS011;2530;47.990;7.866;2023-06-01T04:18:56;7.70;;;5.70;;
5022;SDS011;2530;47.990;7.866;2023-06-01T04:21:21;5.75;;;5.25;;
5022;SDS011;2530;47.990;7.866;2023-06-01T04:23:48;6.22;;;5.63;;
5022;SDS011;2530;47.990;7.866;2023-06-01T04:26:14;5.82;;;5.20;;
5022;SDS011;2530;47.990;7.866;2023-06-01T04:28:40;6.70;;;5.82;;
5022;SDS011;2530;47.990;7.866;2023-06-01T04:31:09;6.50;;;5.90;;
5022;SDS011;2530;47.990;7.866;2023-06-01T04:33:42;6.82;;;6.15;;
5022;SDS011;2530;47.990;7.866;2023-06-01T04:36:10;7.05;;;6.13;;
5022;SDS011;2530;47.990;7.866;2023-06-01T04:38:41;6.22;;;5.63;;
5022;SDS011;2530;47.990;7.866;2023-06-01T04:41:10;6.00;;;5.40;;
5022;SDS011;2530;47.990;7.866;2023-06-01T04:43:37;6.00;;;5.40;;
5022;SDS011;2530;47.990;7.866;2023-06-01T04:46:05;6.53;;;5.93;;
5022;SDS011;2530;47.990;7.866;2023-06-01T04:48:32;6.38;;;5.78;;
5022;SDS011;2530;47.990;7.866;2023-06-01T04:50:58;5.68;;;5.18;;
5022;SDS011;2530;47.990;7.866;2023-06-01T04:53:24;6.10;;;5.60;;
5022;SDS011;2530;47.990;7.866;2023-06-01T04:55:51;6.97;;;5.45;;
5022;SDS011;2530;47.990;7.866;2023-06-01T04:58:17;7.05;;;5.90;;
5022;SDS011;2530;47.990;7.866;2023-06-01T05:00:42;6.60;;;5.90;;
5022;SDS011;2530;47.990;7.866;2023-06-01T05:03:08;6.20;;;5.60;;
5022;SDS011;2530;47.990;7.866;2023-06-01T05:05:33;7.35;;;6.32;;
5022;SDS011;2530;47.990;7.866;2023-06-01T05:07:59;6.83;;;5.80;;
5022;SDS011;2530;47.990;7.866;2023-06-01T05:10:25;7.30;;;5.90;;
5022;SDS011;2530;47.990;7.866;2023-06-01T05:12:50;5.70;;;5.20;;
5022;SDS011;2530;47.990;7.866;2023-06-01T05:15:16;7.00;;;5.65;;
5022;SDS011;2530;47.990;7.866;2023-06-01T05:17:42;7.20;;;6.07;;
5022;SDS011;2530;47.990;7.866;2023-06-01T05:20:08;5.88;;;5.28;;
5022;SDS011;2530;47.990;7.866;2023-06-01T05:22:36;7.10;;;5.50;;
5022;SDS011;2530;47.990;7.866;2023-06-01T05:25:02;6.27;;;5.10;;
5022;SDS011;2530;47.990;7.866;2023-06-01T05:27:28;6.30;;;5.40;;
5022;SDS011;2530;47.990;7.866;2023-06-01T05:29:53;6.23;;;5.63;;
5022;SDS011;2530;47.990;7.866;2023-06-01T05:32:20;8.07;;;5.18;;
5022;SDS011;2530;47.990;7.866;2023-06-01T05:34:45;6.13;;;5.63;;
5022;SDS011;2530;47.990;7.866;2023-06-01T05:37:11;5.57;;;5.07;;
5022;SDS011;2530;47.990;7.866;2023-06-01T05:39:36;7.97;;;5.80;;
5022;SDS011;2530;47.990;7.866;2023-06-01T05:42:02;5.75;;;5.10;;
5022;SDS011;2530;47.990;7.866;2023-06-01T05:44:28;6.63;;;5.10;;
5022;SDS011;2530;47.990;7.866;2023-06-01T05:46:56;5.45;;;4.93;;
5022;SDS011;2530;47.990;7.866;2023-06-01T05:49:21;6.50;;;5.00;;
5022;SDS011;2530;47.990;7.866;2023-06-01T05:51:47;6.00;;;5.40;;
5022;SDS011;2530;47.990;7.866;2023-06-01T05:54:15;5.90;;;5.40;;
5022;SDS011;2530;47.990;7.866;2023-06-01T05:56:40;7.38;;;5.30;;
5022;SDS011;2530;47.990;7.866;2023-06-01T05:59:06;5.97;;;5.38;;
5022;SDS011;2530;47.990;7.866;2023-06-01T06:01:32;5.40;;;4.90;;
5022;SDS011;2530;47.990;7.866;2023-06-01T06:03:57;6.63;;;4.72;;
5022;SDS011;2530;47.990;7.866;2023-06-01T06:06:23;5.07;;;4.57;;
5022;SDS011;2530;47.990;7.866;2023-06-01T06:08:50;5.00;;;4.60;;
5022;SDS011;2530;47.990;7.866;2023-06-01T06:11:16;6.57;;;4.60;;
5022;SDS011;2530;47.990;7.866;2023-06-01T06:13:41;7.60;;;5.40;;
5022;SDS011;2530;47.990;7.866;2023-06-01T06:16:07;6.40;;;4.87;;
5022;SDS011;2530;47.990;7.866;2023-06-01T06:18:33;7.50;;;4.50;;
5022;SDS011;2530;47.990;7.866;2023-06-01T06:20:58;7.47;;;5.00;;
5022;SDS011;2530;47.990;7.866;2023-06-01T06:23:24;5.60;;;4.95;;
5022;SDS011;2530;47.990;7.866;2023-06-01T06:25:49;8.87;;;5.10;;
5022;SDS011;2530;47.990;7.866;2023-06-01T06:28:15;5.73;;;5.17;;
5022;SDS011;2530;47.990;7.866;2023-06-01T06:30:41;6.15;;;4.80;;
5022;SDS011;2530;47.990;7.866;2023-06-01T06:33:06;5.47;;;4.60;;
5022;SDS011;2530;47.990;7.866;2023-06-01T06:35:32;6.97;;;5.20;;
5022;SDS011;2530;47.990;7.866;2023-06-01T06:37:58;7.10;;;5.00;;
5022;SDS011;2530;47.990;7.866;2023-06-01T06:40:23;7.10;;;4.75;;
5022;SDS011;2530;47.990;7.866;2023-06-01T06:42:49;7.30;;;4.90;;
5022;SDS011;2530;47.990;7.866;2023-06-01T06:45:15;6.00;;;4.65;;
5022;SDS011;2530;47.990;7.866;2023-06-01T06:47:41;6.95;;;5.18;;
5022;SDS011;2530;47.990;7.866;2023-06-01T06:50:10;8.90;;;4.93;;
5022;SDS011;2530;47.990;7.866;2023-06-01T06:52:36;5.20;;;4.70;;
5022;SDS011;2530;47.990;7.866;2023-06-01T06:55:02;5.93;;;4.50;;
5022;SDS011;2530;47.990;7.866;2023-06-01T06:57:28;5.03;;;4.47;;
5022;SDS011;2530;47.990;7.866;2023-06-01T06:59:53;7.20;;;4.73;;
5022;SDS011;2530;47.990;7.866;2023-06-01T07:02:19;5.63;;;4.70;;
5022;SDS011;2530;47.990;7.866;2023-06-01T07:04:44;6.72;;;4.70;;
5022;SDS011;2530;47.990;7.866;2023-06-01T07:07:10;7.50;;;4.90;;
5022;SDS011;2530;47.990;7.866;2023-06-01T07:09:36;7.53;;;4.73;;
5022;SDS011;2530;47.990;7.866;2023-06-01T07:12:02;6.23;;;4.60;;
5022;SDS011;2530;47.990;7.866;2023-06-01T07:14:27;7.68;;;5.40;;
5022;SDS011;2530;47.990;7.866;2023-06-01T07:16:53;5.80;;;4.70;;
5022;SDS011;2530;47.990;7.866;2023-06-01T07:19:18;4.83;;;4.33;;
5022;SDS011;2530;47.990;7.866;2023-06-01T07:21:44;6.47;;;4.40;;
5022;SDS011;2530;47.990;7.866;2023-06-01T07:24:10;5.10;;;4.03;;
5022;SDS011;2530;47.990;7.866;2023-06-01T07:26:36;7.00;;;4.40;;
5022;SDS011;2530;47.990;7.866;2023-06-01T07:29:01;7.50;;;4.40;;
5022;SDS011;2530;47.990;7.866;2023-06-01T07:31:27;4.80;;;3.72;;
5022;SDS011;2530;47.990;7.866;2023-06-01T07:33:52;8.57;;;4.40;;
5022;SDS011;2530;47.990;7.866;2023-06-01T07:36:20;7.72;;;4.03;;
5022;SDS011;2530;47.990;7.866;2023-06-01T07:38:48;5.72;;;4.10;;
5022;SDS011;2530;47.990;7.866;2023-06-01T07:41:16;9.20;;;5.50;;
5022;SDS011;2530;47.990;7.866;2023-06-01T07:43:42;7.30;;;4.50;;
5022;SDS011;2530;47.990;7.866;2023-06-01T07:46:08;7.13;;;4.17;;
5022;SDS011;2530;47.990;7.866;2023-06-01T07:48:33;7.30;;;4.50;;
5022;SDS011;2530;47.990;7.866;2023-06-01T07:51:02;7.25;;;4.95;;
5022;SDS011;2530;47.990;7.866;2023-06-01T07:53:28;5.60;;;4.43;;
5022;SDS011;2530;47.990;7.866;2023-06-01T07:55:53;5.63;;;4.40;;
5022;SDS011;2530;47.990;7.866;2023-06-01T07:58:20;6.43;;;4.60;;
5022;SDS011;2530;47.990;7.866;2023-06-01T08:00:45;5.30;;;4.50;;
5022;SDS011;2530;47.990;7.866;2023-06-01T08:03:11;7.35;;;4.47;;
5022;SDS011;2530;47.990;7.866;2023-06-01T08:05:36;7.90;;;4.67;;
5022;SDS011;2530;47.990;7.866;2023-06-01T08:08:02;6.63;;;4.53;;
5022;SDS011;2530;47.990;7.866;2023-06-01T08:10:28;4.93;;;4.40;;
5022;SDS011;2530;47.990;7.866;2023-06-01T08:12:55;6.85;;;4.60;;
5022;SDS011;2530;47.990;7.866;2023-06-01T08:15:22;8.18;;;4.60;;
5022;SDS011;2530;47.990;7.866;2023-06-01T08:17:50;6.57;;;4.47;;
5022;SDS011;2530;47.990;7.866;2023-06-01T08:20:17;7.20;;;4.55;;
5022;SDS011;2530;47.990;7.866;2023-06-01T08:22:46;7.05;;;5.18;;
5022;SDS011;2530;47.990;7.866;2023-06-01T08:25:12;6.03;;;4.53;;
5022;SDS011;2530;47.990;7.866;2023-06-01T08:27:39;7.07;;;4.60;;
5022;SDS011;2530;47.990;7.866;2023-06-01T08:30:05;7.82;;;4.47;;
5022;SDS011;2530;47.990;7.866;2023-06-01T08:32:32;6.33;;;4.63;;
5022;SDS011;2530;47.990;7.866;2023-06-01T08:34:57;5.40;;;4.50;;
5022;SDS011;2530;47.990;7.866;2023-06-01T08:37:23;5.13;;;4.10;;
5022;SDS011;2530;47.990;7.866;2023-06-01T08:39:48;6.07;;;4.37;;
5022;SDS011;2530;47.990;7.866;2023-06-01T08:42:22;4.63;;;3.90;;
5022;SDS011;2530;47.990;7.866;2023-06-01T08:44:56;7.30;;;4.95;;
5022;SDS011;2530;47.990;7.866;2023-06-01T08:47:26;8.13;;;4.70;;
5022;SDS011;2530;47.990;7.866;2023-06-01T08:49:52;6.38;;;4.80;;
5022;SDS011;2530;47.990;7.866;2023-06-01T08:52:19;5.80;;;4.50;;
5022;SDS011;2530;47.990;7.866;2023-06-01T08:54:45;5.43;;;4.43;;
5022;SDS011;2530;47.990;7.866;2023-06-01T08:57:11;7.47;;;4.60;;
5022;SDS011;2530;47.990;7.866;2023-06-01T08:59:38;5.20;;;4.30;;
5022;SDS011;2530;47.990;7.866;2023-06-01T09:02:04;6.25;;;4.90;;
5022;SDS011;2530;47.990;7.866;2023-06-01T09:04:32;7.78;;;4.18;;
5022;SDS011;2530;47.990;7.866;2023-06-01T09:06:59;6.00;;;4.40;;
5022;SDS011;2530;47.990;7.866;2023-06-01T09:09:25;4.87;;;3.80;;
5022;SDS011;2530;47.990;7.866;2023-06-01T09:14:41;7.97;;;4.30;;
5022;SDS011;2530;47.990;7.866;2023-06-01T09:17:07;6.27;;;4.30;;
5022;SDS011;2530;47.990;7.866;2023-06-01T09:19:46;6.68;;;4.40;;
5022;SDS011;2530;47.990;7.866;2023-06-01T09:22:12;8.70;;;4.70;;
5022;SDS011;2530;47.990;7.866;2023-06-01T09:24:38;5.07;;;4.55;;
5022;SDS011;2530;47.990;7.866;2023-06-01T09:27:07;5.90;;;4.50;;
5022;SDS011;2530;47.990;7.866;2023-06-01T09:29:33;9.10;;;5.05;;
5022;SDS011;2530;47.990;7.866;2023-06-01T09:31:59;5.60;;;4.60;;
5022;SDS011;2530;47.990;7.866;2023-06-01T09:34:26;6.43;;;4.33;;
5022;SDS011;2530;47.990;7.866;2023-06-01T09:36:52;6.53;;;4.13;;
5022;SDS011;2530;47.990;7.866;2023-06-01T09:39:20;6.13;;;4.80;;
5022;SDS011;2530;47.990;7.866;2023-06-01T09:41:54;7.90;;;4.35;;
5022;SDS011;2530;47.990;7.866;2023-06-01T09:44:27;5.70;;;4.20;;
5022;SDS011;2530;47.990;7.866;2023-06-01T09:47:14;6.25;;;4.00;;
5022;SDS011;2530;47.990;7.866;2023-06-01T09:49:40;5.53;;;4.30;;
5022;SDS011;2530;47.990;7.866;2023-06-01T09:54:51;5.80;;;4.60;;
5022;SDS011;2530;47.990;7.866;2023-06-01T09:57:21;5.10;;;4.60;;
5022;SDS011;2530;47.990;7.866;2023-06-01T09:59:49;5.63;;;4.03;;
5022;SDS011;2530;47.990;7.866;2023-06-01T10:02:18;5.50;;;4.63;;
5022;SDS011;2530;47.990;7.866;2023-06-01T10:04:47;6.73;;;4.20;;
5022;SDS011;2530;47.990;7.866;2023-06-01T10:07:14;6.20;;;4.50;;
5022;SDS011;2530;47.990;7.866;2023-06-01T10:09:43;6.57;;;4.20;;
5022;SDS011;2530;47.990;7.866;2023-06-01T10:12:11;5.22;;;4.32;;
5022;SDS011;2530;47.990;7.866;2023-06-01T10:14:37;6.83;;;4.00;;
5022;SDS011;2530;47.990;7.866;2023-06-01T10:17:04;10.85;;;4.32;;
5022;SDS011;2530;47.990;7.866;2023-06-01T10:19:30;6.95;;;4.85;;
5022;SDS011;2530;47.990;7.866;2023-06-01T10:21:59;6.53;;;4.57;;
5022;SDS011;2530;47.990;7.866;2023-06-01T10:24:25;6.13;;;4.20;;
5022;SDS011;2530;47.990;7.866;2023-06-01T10:29:41;5.95;;;4.22;;
5022;SDS011;2530;47.990;7.866;2023-06-01T10:40:32;7.38;;;4.70;;
5022;SDS011;2530;47.990;7.866;2023-06-01T10:42:58;4.77;;;4.10;;
5022;SDS011;2530;47.990;7.866;2023-06-01T10:47:58;7.05;;;4.70;;
5022;SDS011;2530;47.990;7.866;2023-06-01T10:50:25;7.20;;;4.90;;
5022;SDS011;2530;47.990;7.866;2023-06-01T10:52:50;5.20;;;4.10;;
5022;SDS011;2530;47.990;7.866;2023-06-01T10:57:42;6.27;;;4.10;;
5022;SDS011;2530;47.990;7.866;2023-06-01T11:02:56;8.27;;;4.70;;
5022;SDS011;2530;47.990;7.866;2023-06-01T11:10:57;5.32;;;4.82;;
5022;SDS011;2530;47.990;7.866;2023-06-01T11:13:28;5.07;;;4.47;;
5022;SDS011;2530;47.990;7.866;2023-06-01T11:18:54;6.13;;;4.22;;
5022;SDS011;2530;47.990;7.866;2023-06-01T11:21:27;7.45;;;4.70;;
5022;SDS011;2530;47.990;7.866;2023-06-01T11:23:59;5.20;;;4.60;;
5022;SDS011;2530;47.990;7.866;2023-06-01T11:26:30;5.63;;;4.00;;
5022;SDS011;2530;47.990;7.866;2023-06-01T11:34:15;5.78;;;4.47;;
5022;SDS011;2530;47.990;7.866;2023-06-01T11:36:44;4.93;;;4.43;;
5022;SDS011;2530;47.990;7.866;2023-06-01T11:39:16;6.85;;;4.38;;
5022;SDS011;2530;47.990;7.866;2023-06-01T11:41:46;5.95;;;3.90;;
5022;SDS011;2530;47.990;7.866;2023-06-01T11:44:12;8.18;;;4.70;;
5022;SDS011;2530;47.990;7.866;2023-06-01T11:46:53;6.72;;;4.55;;
5022;SDS011;2530;47.990;7.866;2023-06-01T11:49:20;5.10;;;4.00;;
5022;SDS011;2530;47.990;7.866;2023-06-01T11:51:46;5.20;;;4.70;;
5022;SDS011;2530;47.990;7.866;2023-06-01T12:01:18;5.27;;;4.10;;
5022;SDS011;2530;47.990;7.866;2023-06-01T12:03:52;4.40;;;4.00;;
5022;SDS011;2530;47.990;7.866;2023-06-01T12:06:41;5.03;;;4.20;;
5022;SDS011;2530;47.990;7.866;2023-06-01T12:09:08;4.07;;;3.75;;
5022;SDS011;2530;47.990;7.866;2023-06-01T12:11:34;4.70;;;4.30;;
5022;SDS011;2530;47.990;7.866;2023-06-01T12:14:00;6.55;;;4.40;;
5022;SDS011;2530;47.990;7.866;2023-06-01T12:19:23;5.28;;;4.40;;
5022;SDS011;2530;47.990;7.866;2023-06-01T12:21:49;6.50;;;5.10;;
5022;SDS011;2530;47.990;7.866;2023-06-01T12:24:16;5.15;;;4.40;;
5022;SDS011;2530;47.990;7.866;2023-06-01T12:26:53;5.15;;;4.40;;
5022;SDS011;2530;47.990;7.866;2023-06-01T12:29:38;4.20;;;3.70;;
5022;SDS011;2530;47.990;7.866;2023-06-01T12:32:08;6.10;;;4.18;;
5022;SDS011;2530;47.990;7.866;2023-06-01T12:34:36;7.05;;;4.85;;
5022;SDS011;2530;47.990;7.866;2023-06-01T12:37:12;4.95;;;4.13;;
5022;SDS011;2530;47.990;7.866;2023-06-01T12:39:42;5.10;;;4.60;;
5022;SDS011;2530;47.990;7.866;2023-06-01T12:42:08;5.85;;;4.82;;
5022;SDS011;2530;47.990;7.866;2023-06-01T12:44:36;6.18;;;4.57;;
5022;SDS011;2530;47.990;7.866;2023-06-01T12:47:02;5.13;;;4.72;;
5022;SDS011;2530;47.990;7.866;2023-06-01T12:49:29;5.47;;;4.43;;
5022;SDS011;2530;47.990;7.866;2023-06-01T12:51:54;4.65;;;4.25;;
5022;SDS011;2530;47.990;7.866;2023-06-01T12:54:20;7.67;;;4.77;;
5022;SDS011;2530;47.990;7.866;2023-06-01T12:56:49;7.47;;;4.60;;
5022;SDS011;2530;47.990;7.866;2023-06-01T12:59:16;6.20;;;4.30;;
5022;SDS011;2530;47.990;7.866;2023-06-01T13:01:42;5.10;;;4.43;;
5022;SDS011;2530;47.990;7.866;2023-06-01T13:04:08;4.30;;;3.90;;
5022;SDS011;2530;47.990;7.866;2023-06-01T13:06:34;5.32;;;4.00;;
5022;SDS011;2530;47.990;7.866;2023-06-01T13:09:00;4.93;;;4.22;;
5022;SDS011;2530;47.990;7.866;2023-06-01T13:11:27;4.80;;;4.40;;
5022;SDS011;2530;47.990;7.866;2023-06-01T13:13:53;5.50;;;5.00;;
5022;SDS011;2530;47.990;7.866;2023-06-01T13:16:20;5.00;;;4.50;;
5022;SDS011;2530;47.990;7.866;2023-06-01T13:18:46;5.00;;;4.60;;
5022;SDS011;2530;47.990;7.866;2023-06-01T13:21:16;5.15;;;4.43;;
5022;SDS011;2530;47.990;7.866;2023-06-01T13:23:42;4.20;;;3.85;;
5022;SDS011;2530;47.990;7.866;2023-06-01T13:26:08;5.00;;;3.80;;
5022;SDS011;2530;47.990;7.866;2023-06-01T13:28:34;5.95;;;4.20;;
5022;SDS011;2530;47.990;7.866;2023-06-01T13:31:00;5.03;;;4.50;;
5022;SDS011;2530;47.990;7.866;2023-06-01T13:33:26;5.10;;;4.57;;
5022;SDS011;2530;47.990;7.866;2023-06-01T13:35:52;5.03;;;4.53;;
5022;SDS011;2530;47.990;7.866;2023-06-01T13:38:17;8.60;;;4.30;;
5022;SDS011;2530;47.990;7.866;2023-06-01T13:40:43;7.60;;;4.50;;
5022;SDS011;2530;47.990;7.866;2023-06-01T13:43:11;5.20;;;4.13;;
5022;SDS011;2530;47.990;7.866;2023-06-01T13:45:37;4.28;;;3.90;;
5022;SDS011;2530;47.990;7.866;2023-06-01T13:48:02;4.53;;;4.13;;
5022;SDS011;2530;47.990;7.866;2023-06-01T13:50:28;5.60;;;4.40;;
5022;SDS011;2530;47.990;7.866;2023-06-01T13:52:54;4.77;;;4.10;;
5022;SDS011;2530;47.990;7.866;2023-06-01T13:59:22;5.10;;;4.60;;
5022;SDS011;2530;47.990;7.866;2023-06-01T14:15:42;6.15;;;4.78;;
5022;SDS011;2530;47.990;7.866;2023-06-01T14:57:45;5.73;;;4.70;;
5022;SDS011;2530;47.990;7.866;2023-06-01T15:00:11;4.90;;;4.40;;
5022;SDS011;2530;47.990;7.866;2023-06-01T15:02:53;6.28;;;4.75;;
5022;SDS011;2530;47.990;7.866;2023-06-01T15:08:16;5.45;;;4.72;;
5022;SDS011;2530;47.990;7.866;2023-06-01T15:13:32;5.88;;;4.72;;
5022;SDS011;2530;47.990;7.866;2023-06-01T15:15:58;4.95;;;4.45;;
5022;SDS011;2530;47.990;7.866;2023-06-01T15:18:37;6.30;;;4.40;;
5022;SDS011;2530;47.990;7.866;2023-06-01T15:21:11;5.95;;;4.47;;
5022;SDS011;2530;47.990;7.866;2023-06-01T15:23:48;5.00;;;4.35;;
5022;SDS011;2530;47.990;7.866;2023-06-01T15:26:36;5.70;;;5.00;;
5022;SDS011;2530;47.990;7.866;2023-06-01T15:29:11;5.97;;;4.57;;
5022;SDS011;2530;47.990;7.866;2023-06-01T15:31:40;4.50;;;4.20;;
5022;SDS011;2530;47.990;7.866;2023-06-01T15:34:16;5.77;;;4.80;;
5022;SDS011;2530;47.990;7.866;2023-06-01T15:36:53;5.90;;;4.45;;
5022;SDS011;2530;47.990;7.866;2023-06-01T15:39:20;6.30;;;4.82;;
5022;SDS011;2530;47.990;7.866;2023-06-01T15:41:46;7.03;;;5.00;;
5022;SDS011;2530;47.990;7.866;2023-06-01T15:50:14;6.20;;;4.38;;
5022;SDS011;2530;47.990;7.866;2023-06-01T15:52:42;5.70;;;4.43;;
5022;SDS011;2530;47.990;7.866;2023-06-01T15:55:10;4.93;;;4.43;;
5022;SDS011;2530;47.990;7.866;2023-06-01T15:57:39;6.30;;;4.30;;
5022;SDS011;2530;47.990;7.866;2023-06-01T16:00:27;5.07;;;4.60;;
5022;SDS011;2530;47.990;7.866;2023-06-01T16:03:01;6.70;;;4.82;;
5022;SDS011;2530;47.990;7.866;2023-06-01T16:05:32;6.45;;;4.82;;
5022;SDS011;2530;47.990;7.866;2023-06-01T16:08:16;6.10;;;4.70;;
5022;SDS011;2530;47.990;7.866;2023-06-01T16:10:48;5.60;;;4.90;;
5022;SDS011;2530;47.990;7.866;2023-06-01T16:13:13;4.97;;;4.50;;
5022;SDS011;2530;47.990;7.866;2023-06-01T16:15:39;5.78;;;4.63;;
5022;SDS011;2530;47.990;7.866;2023-06-01T16:18:05;5.13;;;4.63;;
5022;SDS011;2530;47.990;7.866;2023-06-01T16:20:57;5.38;;;4.70;;
5022;SDS011;2530;47.990;7.866;2023-06-01T16:23:43;7.55;;;4.50;;
5022;SDS011;2530;47.990;7.866;2023-06-01T16:32:24;5.47;;;4.88;;
5022;SDS011;2530;47.990;7.866;2023-06-01T16:35:01;6.00;;;5.03;;
5022;SDS011;2530;47.990;7.866;2023-06-01T16:37:45;5.60;;;4.90;;
5022;SDS011;2530;47.990;7.866;2023-06-01T16:40:13;4.88;;;4.07;;
5022;SDS011;2530;47.990;7.866;2023-06-01T16:45:43;5.10;;;4.57;;
5022;SDS011;2530;47.990;7.866;2023-06-01T16:48:15;4.93;;;4.53;;
5022;SDS011;2530;47.990;7.866;2023-06-01T16:50:56;6.82;;;4.50;;
5022;SDS011;2530;47.990;7.866;2023-06-01T16:53:22;4.90;;;4.50;;
5022;SDS011;2530;47.990;7.866;2023-06-01T17:02:35;5.00;;;4.50;;
5022;SDS011;2530;47.990;7.866;2023-06-01T17:09:19;5.85;;;4.90;;
5022;SDS011;2530;47.990;7.866;2023-06-01T17:56:15;5.60;;;3.60;;
5022;SDS011;2530;47.990;7.866;2023-06-01T17:58:41;5.85;;;3.65;;
5022;SDS011;2530;47.990;7.866;2023-06-01T18:01:06;5.20;;;4.10;;
5022;SDS011;2530;47.990;7.866;2023-06-01T18:03:32;5.00;;;3.63;;
5022;SDS011;2530;47.990;7.866;2023-06-01T18:06:02;4.05;;;3.25;;
5022;SDS011;2530;47.990;7.866;2023-06-01T18:08:31;7.20;;;4.00;;
5022;SDS011;2530;47.990;7.866;2023-06-01T18:10:57;4.30;;;3.63;;
5022;SDS011;2530;47.990;7.866;2023-06-01T18:13:34;5.68;;;3.80;;
5022;SDS011;2530;47.990;7.866;2023-06-01T18:16:00;5.10;;;3.45;;
5022;SDS011;2530;47.990;7.866;2023-06-01T18:18:29;4.60;;;3.42;;
5022;SDS011;2530;47.990;7.866;2023-06-01T18:20:55;3.80;;;3.50;;
5022;SDS011;2530;47.990;7.866;2023-06-01T18:23:24;5.32;;;3.58;;
5022;SDS011;2530;47.990;7.866;2023-06-01T18:25:50;5.50;;;3.53;;
5022;SDS011;2530;47.990;7.866;2023-06-01T18:28:19;4.63;;;3.47;;